createdAt,value
2023-01-18T00:03:50.283Z,14.58
2023-01-18T00:08:53.975Z,14.62
2023-01-18T00:13:54.349Z,14.63
2023-01-18T00:18:59.439Z,14.77
2023-01-18T00:23:58.500Z,14.75
2023-01-18T00:29:00.558Z,14.85
2023-01-18T00:34:08.897Z,14.95
2023-01-18T00:39:26.229Z,14.82
2023-01-18T00:44:27.604Z,14.83
2023-01-18T00:49:28.708Z,14.85
2023-01-18T00:54:29.087Z,14.79
2023-01-18T00:59:27.873Z,14.80
2023-01-18T01:04:48.059Z,14.84
2023-01-18T01:09:51.758Z,14.74
2023-01-18T01:15:13.872Z,14.82
2023-01-18T01:20:33.621Z,14.71
2023-01-18T01:25:56.979Z,14.88
2023-01-18T01:31:03.338Z,14.89
2023-01-18T01:36:07.408Z,14.90
2023-01-18T01:41:08.216Z,15.07
2023-01-18T01:46:23.279Z,14.96
2023-01-18T01:51:24.701Z,15.10
2023-01-18T01:56:25.662Z,15.13
2023-01-18T02:01:28.344Z,15.01
2023-01-18T02:06:39.949Z,15.02
2023-01-18T02:11:38.976Z,15.13
2023-01-18T02:17:19.684Z,15.29
2023-01-18T02:22:41.989Z,15.32
2023-01-18T02:27:53.737Z,15.14
2023-01-18T02:33:01.534Z,15.46
2023-01-18T02:38:26.286Z,15.59
2023-01-18T02:43:47.485Z,15.41
2023-01-18T02:48:52.392Z,15.56
2023-01-18T02:53:57.714Z,15.60
2023-01-18T02:59:01.750Z,15.55
2023-01-18T03:04:32.973Z,15.57
2023-01-18T03:09:37.012Z,15.59
2023-01-18T03:14:55.240Z,15.66
2023-01-18T03:20:08.874Z,15.69
2023-01-18T03:25:08.916Z,15.56
2023-01-18T03:30:29.683Z,15.72
2023-01-18T03:35:29.919Z,15.84
2023-01-18T03:40:31.713Z,15.74
2023-01-18T03:45:34.305Z,15.79
2023-01-18T04:15:45.122Z,15.59
2023-01-18T04:20:44.588Z,15.37
2023-01-18T04:25:54.869Z,15.49
2023-01-18T04:31:01.553Z,15.27
2023-01-18T04:36:20.289Z,15.23
2023-01-18T04:41:22.305Z,15.25
2023-01-18T04:46:22.884Z,15.11
2023-01-18T04:51:24.228Z,15.09
2023-01-18T04:56:23.055Z,14.94
2023-01-18T05:01:22.311Z,14.89
2023-01-18T05:06:22.797Z,14.93
2023-01-18T05:11:33.509Z,15.01
2023-01-18T05:16:35.472Z,14.93
2023-01-18T05:21:36.926Z,14.87
2023-01-18T05:26:35.308Z,14.85
2023-01-18T05:31:36.996Z,14.94
2023-01-18T05:36:45.417Z,15.08
2023-01-18T05:41:56.256Z,15.14
2023-01-18T05:46:55.552Z,15.15
2023-01-18T05:51:57.538Z,15.16
2023-01-18T05:57:02.646Z,15.19
2023-01-18T06:02:04.426Z,15.16
2023-01-18T06:07:04.867Z,15.14
2023-01-18T06:12:03.613Z,15.29
2023-01-18T06:17:06.794Z,15.48
2023-01-18T06:22:09.533Z,15.36
2023-01-18T06:27:11.976Z,15.55
2023-01-18T06:32:12.828Z,15.52
2023-01-18T06:37:14.781Z,15.48
2023-01-18T06:42:16.086Z,15.49
2023-01-18T06:47:16.524Z,15.47
2023-01-18T06:52:16.164Z,15.52
2023-01-18T06:57:17.621Z,15.69
2023-01-18T07:02:16.978Z,15.65
2023-01-18T07:07:22.568Z,15.68
2023-01-18T07:12:23.880Z,15.86
2023-01-18T07:17:22.488Z,16.10
2023-01-18T07:22:23.249Z,16.11
2023-01-18T07:27:24.601Z,16.24
2023-01-18T07:32:25.070Z,16.41
2023-01-18T07:37:25.192Z,16.23
2023-01-18T07:42:38.547Z,16.47
2023-01-18T07:47:46.227Z,16.59
2023-01-18T07:52:45.670Z,16.63
2023-01-18T07:57:45.025Z,16.67
2023-01-18T08:02:55.623Z,17.05
2023-01-18T08:07:55.374Z,17.02
2023-01-18T08:12:57.983Z,17.06
2023-01-18T08:18:03.021Z,17.34
2023-01-18T08:23:04.361Z,17.55
2023-01-18T08:28:56.189Z,17.78
2023-01-18T08:33:39.755Z,17.94
2023-01-18T08:38:40.488Z,17.83
2023-01-18T08:43:40.143Z,17.96
2023-01-18T08:48:41.157Z,17.92
2023-01-18T08:53:40.824Z,17.81
2023-01-18T08:58:41.848Z,18.03
2023-01-18T09:03:45.786Z,18.26
2023-01-18T09:08:54.067Z,18.14
2023-01-18T09:14:01.650Z,17.88
2023-01-18T09:18:59.914Z,17.95
2023-01-18T09:23:59.834Z,17.93
2023-01-18T09:28:59.806Z,18.42
2023-01-18T09:34:18.101Z,18.35
2023-01-18T09:39:24.121Z,18.28
2023-01-18T09:44:35.119Z,18.53
2023-01-18T09:50:06.512Z,18.78
2023-01-18T09:55:26.508Z,18.79
2023-01-18T10:00:30.220Z,18.66
2023-01-18T10:05:32.653Z,18.69
2023-01-18T10:10:45.483Z,18.72
2023-01-18T10:15:43.460Z,18.86
2023-01-18T10:20:46.220Z,19.03
2023-01-18T10:26:07.832Z,18.92
2023-01-18T10:31:16.041Z,18.87
2023-01-18T10:36:22.369Z,18.67
2023-01-18T10:41:27.957Z,18.69
2023-01-18T10:46:28.131Z,18.74
2023-01-18T10:51:37.148Z,18.79
2023-01-18T10:56:40.099Z,19.01
2023-01-18T11:01:57.463Z,19.28
2023-01-18T11:07:01.151Z,19.31
2023-01-18T11:12:39.693Z,19.55
2023-01-18T11:18:06.051Z,19.66
2023-01-18T11:23:12.980Z,19.78
2023-01-18T11:28:46.119Z,19.68
2023-01-18T11:34:08.148Z,19.77
2023-01-18T11:39:35.013Z,19.87
2023-01-18T11:44:35.408Z,19.87
2023-01-18T11:49:45.515Z,19.97
2023-01-18T11:54:55.598Z,19.94
2023-01-18T11:59:56.954Z,20.12
2023-01-18T12:05:18.411Z,20.10
2023-01-18T12:10:24.338Z,20.03
2023-01-18T12:15:45.661Z,20.13
2023-01-18T12:20:58.310Z,20.18
2023-01-18T12:26:12.150Z,20.31
2023-01-18T12:31:24.795Z,20.26
2023-01-18T12:36:38.339Z,20.32
2023-01-18T12:41:54.458Z,20.25
2023-01-18T12:47:15.255Z,20.34
2023-01-18T12:52:19.401Z,20.22
2023-01-18T12:57:24.830Z,20.39
2023-01-18T13:02:29.440Z,20.31
2023-01-18T13:07:46.422Z,20.34
2023-01-18T13:12:44.986Z,20.45
2023-01-18T13:18:01.965Z,20.16
2023-01-18T13:23:03.654Z,20.34
2023-01-18T13:28:18.773Z,20.10
2023-01-18T13:33:26.615Z,20.08
2023-01-18T13:38:41.110Z,19.92
2023-01-18T13:43:46.602Z,20.03
2023-01-18T13:48:55.749Z,19.92
2023-01-18T13:53:54.696Z,20.02
2023-01-18T13:58:56.434Z,19.58
2023-01-18T14:03:55.740Z,19.79
2023-01-18T14:09:06.976Z,19.63
2023-01-18T14:14:25.095Z,19.28
2023-01-18T14:19:29.194Z,19.37
2023-01-18T14:24:46.863Z,19.27
2023-01-18T14:30:06.984Z,19.14
2023-01-18T14:35:39.260Z,19.10
2023-01-18T14:40:43.464Z,18.90
2023-01-18T14:45:51.533Z,18.86
2023-01-18T14:50:53.850Z,18.86
2023-01-18T14:56:17.268Z,18.81
2023-01-18T15:01:34.133Z,18.88
2023-01-18T15:06:51.320Z,18.60
2023-01-18T15:11:52.330Z,18.51
2023-01-18T15:16:53.428Z,18.39
2023-01-18T15:21:51.748Z,18.37
2023-01-18T15:27:02.210Z,18.12
2023-01-18T15:32:08.126Z,18.07
2023-01-18T15:37:11.039Z,18.09
2023-01-18T15:42:12.358Z,17.99
2023-01-18T15:47:28.526Z,17.80
2023-01-18T15:52:43.972Z,17.85
2023-01-18T15:58:02.673Z,17.62
2023-01-18T16:03:03.003Z,17.47
2023-01-18T16:08:22.727Z,17.46
2023-01-18T16:14:13.085Z,17.56
2023-01-18T16:19:41.441Z,17.21
2023-01-18T16:25:01.907Z,17.15
2023-01-18T16:30:04.724Z,17.07
2023-01-18T16:35:18.371Z,17.16
2023-01-18T16:40:21.124Z,16.90
2023-01-18T16:45:19.155Z,16.83
2023-01-18T16:50:18.950Z,17.05
2023-01-18T16:55:18.298Z,16.92
2023-01-18T17:00:16.567Z,17.01
2023-01-18T17:05:17.285Z,16.79
2023-01-18T17:10:43.367Z,16.76
2023-01-18T17:15:42.143Z,16.77
2023-01-18T17:20:40.874Z,16.85
2023-01-18T17:25:42.324Z,16.90
2023-01-18T17:30:45.121Z,16.98
2023-01-18T17:35:52.112Z,17.03
2023-01-18T17:40:51.266Z,16.86
2023-01-18T17:45:59.848Z,16.89
2023-01-18T17:51:01.555Z,16.90
2023-01-18T17:56:00.256Z,16.80
2023-01-18T18:01:05.723Z,16.60
2023-01-18T18:06:04.875Z,16.70
2023-01-18T18:11:07.294Z,16.67
2023-01-18T18:16:05.277Z,16.62
2023-01-18T18:21:05.690Z,16.65
2023-01-18T18:26:04.765Z,16.51
2023-01-18T18:31:05.220Z,16.43
2023-01-18T18:36:02.991Z,16.57
2023-01-18T18:41:05.330Z,16.40
2023-01-18T18:46:04.041Z,16.46
2023-01-18T18:51:04.046Z,16.58
2023-01-18T18:56:07.051Z,16.47
2023-01-18T19:01:05.989Z,16.53
2023-01-18T19:06:04.101Z,16.59
2023-01-18T19:11:02.532Z,16.34
2023-01-18T19:16:00.732Z,16.37
2023-01-18T19:21:36.878Z,16.42
2023-01-18T19:26:40.184Z,16.28
2023-01-18T19:31:54.486Z,16.46
2023-01-18T19:37:08.563Z,16.20
2023-01-18T19:42:41.107Z,16.11
2023-01-18T19:53:13.588Z,16.10
2023-01-18T20:10:15.176Z,16.12
2023-01-18T20:15:20.718Z,16.15
2023-01-18T20:20:31.933Z,15.94
2023-01-18T20:25:45.517Z,16.04
2023-01-18T20:30:54.407Z,15.90
2023-01-18T20:35:56.845Z,16.00
2023-01-18T20:40:56.694Z,15.93
2023-01-18T20:46:06.689Z,15.91
2023-01-18T20:51:05.456Z,15.89
2023-01-18T20:56:14.355Z,15.89
2023-01-18T21:01:32.610Z,15.98
2023-01-18T21:06:37.631Z,15.98
2023-01-18T21:11:42.707Z,16.02
2023-01-18T21:16:57.941Z,16.21
2023-01-18T21:21:55.760Z,16.06
2023-01-18T21:26:59.663Z,15.94
2023-01-18T21:32:07.378Z,16.17
2023-01-18T21:37:09.447Z,16.14
2023-01-18T21:42:34.705Z,16.19
2023-01-18T21:47:35.574Z,16.02
2023-01-18T21:52:57.874Z,15.97
2023-01-18T21:58:29.429Z,15.97
2023-01-18T22:03:32.454Z,15.88
2023-01-18T22:08:33.904Z,15.96
2023-01-18T22:13:34.791Z,15.96
2023-01-18T22:18:37.633Z,15.84
2023-01-18T22:23:36.520Z,15.86
2023-01-18T22:28:34.911Z,15.83
2023-01-18T22:33:35.118Z,15.89
2023-01-18T22:38:34.280Z,15.76
2023-01-18T22:43:36.215Z,15.71
2023-01-18T22:48:38.139Z,15.82
2023-01-18T22:53:37.968Z,15.76
2023-01-18T22:58:38.478Z,15.86
2023-01-18T23:03:44.703Z,15.88
2023-01-18T23:08:58.577Z,15.92
2023-01-18T23:14:36.992Z,15.94
2023-01-18T23:19:43.361Z,16.10
2023-01-18T23:24:46.184Z,16.00
2023-01-18T23:30:14.607Z,15.98
2023-01-18T23:35:27.926Z,15.90
2023-01-18T23:46:21.976Z,16.01
2023-01-18T23:51:46.283Z,16.08
2023-01-18T23:56:50.229Z,15.96
